Time;durP1;ratioP1;P1;durP2;ratioP2;P2;SDS_P1;SDS_P2;PMS_P1;PMS_P2;Temp;Humidity;BMP_temperature;BMP_pressure;BME280_temperature;BME280_humidity;BME280_pressure;Samples;Min_cycle;Max_cycle;Signal;HPM_P1;HPM_P2
2021/08/30 00:01:31;;;;;;;7.03;3.45;;;;;;;;;;20906870;28;20053;-63
2021/08/30 00:11:33;;;;;;;4.22;3.53;;;;;;;;;;20902919;28;20487;-63
2021/08/30 00:21:35;;;;;;;4.78;3.10;;;;;;;;;;20902899;28;20044;-63
2021/08/30 00:31:37;;;;;;;8.32;3.53;;;;;;;;;;20902370;28;20045;-63
2021/08/30 00:41:39;;;;;;;4.53;2.88;;;;;;;;;;20901667;28;20409;-63
2021/08/30 00:51:41;;;;;;;8.27;3.25;;;;;;;;;;20901226;28;20064;-66
2021/08/30 01:01:44;;;;;;;3.92;2.92;;;;;;;;;;20900383;28;20400;-67
2021/08/30 01:11:51;;;;;;;5.78;3.40;;;;;;;;;;20899199;28;20053;-63
2021/08/30 01:21:53;;;;;;;5.07;3.20;;;;;;;;;;20899632;28;20193;-64
2021/08/30 01:32:04;;;;;;;5.03;3.25;;;;;;;;;;20899268;28;20374;-63
2021/08/30 01:42:08;;;;;;;7.78;3.58;;;;;;;;;;20898941;28;20049;-63
2021/08/30 01:52:37;;;;;;;5.75;3.00;;;;;;;;;;20899576;28;20045;-63
2021/08/30 02:02:46;;;;;;;4.57;2.60;;;;;;;;;;20909880;28;20147;-63
2021/08/30 02:12:51;;;;;;;6.70;2.63;;;;;;;;;;20910938;28;20069;-67
2021/08/30 02:23:02;;;;;;;3.38;2.35;;;;;;;;;;20910668;28;20105;-64
2021/08/30 02:33:12;;;;;;;5.07;2.30;;;;;;;;;;20910244;28;20045;-66
2021/08/30 02:43:22;;;;;;;5.45;2.40;;;;;;;;;;20909536;28;20098;-66
2021/08/30 02:53:44;;;;;;;;;;;;;;;;;;20909461;28;20047;-65
2021/08/30 03:03:55;;;;;;;5.88;4.20;;;;;;;;;;20908082;28;20019;-68
2021/08/30 03:14:01;;;;;;;3.78;2.13;;;;;;;;;;20907054;28;20123;-63
2021/08/30 03:24:06;;;;;;;5.57;2.92;;;;;;;;;;20906698;28;20045;-61
2021/08/30 03:34:10;;;;;;;4.53;2.67;;;;;;;;;;20906056;28;20415;-63
2021/08/30 03:44:14;;;;;;;3.70;2.47;;;;;;;;;;20905489;28;20488;-63
2021/08/30 03:54:18;;;;;;;4.40;2.40;;;;;;;;;;20905088;28;20049;-63
2021/08/30 04:04:25;;;;;;;4.65;2.42;;;;;;;;;;20904303;28;20076;-62
2021/08/30 04:14:30;;;;;;;5.97;2.42;;;;;;;;;;20902981;28;20052;-63
2021/08/30 04:24:51;;;;;;;3.88;2.45;;;;;;;;;;20902825;28;20053;-62
2021/08/30 04:35:14;;;;;;;6.13;2.50;;;;;;;;;;20907693;28;20056;-64
2021/08/30 04:45:37;;;;;;;7.47;2.88;;;;;;;;;;20905572;28;20397;-63
2021/08/30 04:55:58;;;;;;;5.47;2.97;;;;;;;;;;20901316;28;20052;-63
2021/08/30 05:06:21;;;;;;;7.57;3.05;;;;;;;;;;20900865;28;20049;-63
2021/08/30 05:16:32;;;;;;;5.35;2.80;;;;;;;;;;20901562;28;20469;-62
2021/08/30 05:26:50;;;;;;;8.20;3.22;;;;;;;;;;20884871;28;20041;-62
2021/08/30 05:37:11;;;;;;;8.07;3.60;;;;;;;;;;20913069;28;20485;-63
2021/08/30 05:47:13;;;;;;;;;;;;;;;;;;20915539;28;20497;-64
2021/08/30 05:57:23;;;;;;;6.50;3.22;;;;;;;;;;20912634;28;19925;-62
2021/08/30 06:07:27;;;;;;;8.88;3.55;;;;;;;;;;20911976;28;20045;-64
2021/08/30 06:17:34;;;;;;;7.80;3.67;;;;;;;;;;20911783;28;20475;-63
2021/08/30 06:27:40;;;;;;;6.43;3.58;;;;;;;;;;20911583;28;20477;-63
2021/08/30 06:37:55;;;;;;;6.18;3.20;;;;;;;;;;20910759;28;20086;-63
2021/08/30 06:48:02;;;;;;;6.13;3.63;;;;;;;;;;20909997;28;20049;-63
2021/08/30 06:58:10;;;;;;;5.00;3.42;;;;;;;;;;20909317;28;20190;-62
2021/08/30 07:08:12;;;;;;;7.22;3.85;;;;;;;;;;20908477;28;20049;-63
2021/08/30 07:18:18;;;;;;;10.73;3.90;;;;;;;;;;20907512;28;20049;-62
2021/08/30 07:28:21;;;;;;;8.82;4.72;;;;;;;;;;20906671;28;20051;-63
2021/08/30 07:38:25;;;;;;;7.15;3.58;;;;;;;;;;20906360;28;20098;-62
2021/08/30 07:48:31;;;;;;;8.40;3.55;;;;;;;;;;20888354;28;20093;-62
2021/08/30 07:58:42;;;;;;;6.20;3.47;;;;;;;;;;20903902;28;20049;-62
2021/08/30 08:08:47;;;;;;;7.07;4.00;;;;;;;;;;20906394;28;20129;-62
2021/08/30 08:18:58;;;;;;;6.65;3.67;;;;;;;;;;20904500;28;20050;-63
2021/08/30 08:29:09;;;;;;;7.80;4.50;;;;;;;;;;20903325;28;20397;-62
2021/08/30 08:39:16;;;;;;;6.85;3.97;;;;;;;;;;20885681;28;20059;-70
2021/08/30 08:49:20;;;;;;;6.70;4.00;;;;;;;;;;20902007;28;20049;-67
2021/08/30 08:59:25;;;;;;;5.70;4.28;;;;;;;;;;20901506;28;20481;-62
2021/08/30 09:09:28;;;;;;;7.25;3.80;;;;;;;;;;20900459;28;20098;-60
2021/08/30 09:19:41;;;;;;;7.18;4.32;;;;;;;;;;20900104;28;20049;-63
2021/08/30 09:29:44;;;;;;;5.82;3.42;;;;;;;;;;20899990;28;20110;-64
2021/08/30 09:39:46;;;;;;;7.43;3.90;;;;;;;;;;20899273;28;20049;-63
2021/08/30 09:49:51;;;;;;;7.13;3.45;;;;;;;;;;20898779;28;20084;-63
2021/08/30 10:00:05;;;;;;;7.07;3.55;;;;;;;;;;20896969;28;20075;-64
2021/08/30 10:10:08;;;;;;;9.82;3.85;;;;;;;;;;20898402;28;20473;-76
2021/08/30 10:20:25;;;;;;;7.03;3.50;;;;;;;;;;20912414;28;20053;-62
2021/08/30 10:30:28;;;;;;;5.55;3.58;;;;;;;;;;20911154;28;20378;-67
2021/08/30 10:40:32;;;;;;;6.63;3.13;;;;;;;;;;20910094;28;20053;-59
2021/08/30 10:50:39;;;;;;;3.80;2.90;;;;;;;;;;20910183;28;20140;-64
2021/08/30 11:00:55;;;;;;;5.50;4.45;;;;;;;;;;20909829;28;20053;-65
2021/08/30 11:11:17;;;;;;;4.55;3.03;;;;;;;;;;20908427;28;20049;-65
2021/08/30 11:21:35;;;;;;;6.90;4.53;;;;;;;;;;20908426;28;20497;-64
2021/08/30 11:31:40;;;;;;;6.45;3.38;;;;;;;;;;20906867;28;20045;-64
2021/08/30 11:41:45;;;;;;;5.10;3.30;;;;;;;;;;20889223;28;20053;-65
2021/08/30 11:51:47;;;;;;;4.03;3.08;;;;;;;;;;20905956;28;20052;-65
2021/08/30 12:01:50;;;;;;;4.53;2.97;;;;;;;;;;20905602;28;20105;-64
2021/08/30 12:11:53;;;;;;;5.75;2.85;;;;;;;;;;20904765;28;20105;-64
2021/08/30 12:22:01;;;;;;;4.28;2.30;;;;;;;;;;20903844;28;20055;-64
2021/08/30 12:32:06;;;;;;;6.03;3.00;;;;;;;;;;20904137;28;20128;-64
2021/08/30 12:42:09;;;;;;;5.72;3.13;;;;;;;;;;20902399;28;20058;-62
2021/08/30 12:52:11;;;;;;;5.82;2.33;;;;;;;;;;20902790;28;20045;-65
2021/08/30 13:02:16;;;;;;;4.05;2.85;;;;;;;;;;20884985;28;20465;-64
2021/08/30 13:12:18;;;;;;;3.78;2.78;;;;;;;;;;20901182;28;20444;-63
2021/08/30 13:22:22;;;;;;;5.60;2.50;;;;;;;;;;20900513;28;20095;-63
2021/08/30 13:32:26;;;;;;;5.40;3.13;;;;;;;;;;20900948;28;20083;-63
2021/08/30 13:42:46;;;;;;;5.00;2.70;;;;;;;;;;20901654;28;20053;-63
2021/08/30 13:52:49;;;;;;;11.13;4.05;;;;;;;;;;20886815;28;20052;-62
2021/08/30 14:02:52;;;;;;;2.75;2.20;;;;;;;;;;20913059;28;20045;-64
2021/08/30 14:13:00;;;;;;;3.85;2.70;;;;;;;;;;20912669;28;20049;-64
2021/08/30 14:23:18;;;;;;;4.03;2.70;;;;;;;;;;20896241;28;20053;-64
2021/08/30 14:33:22;;;;;;;5.50;2.65;;;;;;;;;;20911135;28;20053;-63
2021/08/30 14:43:25;;;;;;;5.80;2.72;;;;;;;;;;20910267;28;20049;-65
2021/08/30 14:53:31;;;;;;;5.90;2.58;;;;;;;;;;20910384;28;20150;-63
2021/08/30 15:03:35;;;;;;;3.85;2.50;;;;;;;;;;20908352;28;20048;-63
2021/08/30 15:13:43;;;;;;;4.63;2.63;;;;;;;;;;20907955;28;20539;-64
2021/08/30 15:23:46;;;;;;;4.45;2.33;;;;;;;;;;20908023;28;20518;-63
2021/08/30 15:33:52;;;;;;;5.63;3.90;;;;;;;;;;20907379;28;20085;-63
2021/08/30 15:44:00;;;;;;;5.82;2.40;;;;;;;;;;20906595;28;20128;-63
2021/08/30 15:54:03;;;;;;;3.17;2.80;;;;;;;;;;20906450;28;20056;-63
2021/08/30 16:04:11;;;;;;;5.13;3.20;;;;;;;;;;20906064;28;20438;-62
2021/08/30 16:14:16;;;;;;;5.13;2.70;;;;;;;;;;20886830;28;20090;-62
2021/08/30 16:24:20;;;;;;;6.18;3.33;;;;;;;;;;20903832;28;20045;-63
2021/08/30 16:34:23;;;;;;;5.57;3.25;;;;;;;;;;20900884;28;20059;-63
2021/08/30 16:44:25;;;;;;;5.75;3.20;;;;;;;;;;20883541;28;20445;-64
2021/08/30 16:54:28;;;;;;;5.15;3.20;;;;;;;;;;20900415;28;20097;-63
2021/08/30 17:04:32;;;;;;;4.70;2.75;;;;;;;;;;20900302;28;20088;-64
2021/08/30 17:14:34;;;;;;;5.50;3.10;;;;;;;;;;20898184;28;20069;-63
2021/08/30 17:24:36;;;;;;;5.88;2.90;;;;;;;;;;20899172;28;20045;-63
2021/08/30 17:34:38;;;;;;;3.72;3.13;;;;;;;;;;20912772;28;20052;-64
2021/08/30 17:44:43;;;;;;;5.57;3.33;;;;;;;;;;20894009;28;20053;-63
2021/08/30 17:54:45;;;;;;;6.78;3.72;;;;;;;;;;20910945;28;20105;-63
2021/08/30 18:04:49;;;;;;;6.93;4.30;;;;;;;;;;20910485;28;20053;-63
2021/08/30 18:14:51;;;;;;;8.07;4.70;;;;;;;;;;20911472;28;20092;-63
2021/08/30 18:24:53;;;;;;;7.40;4.20;;;;;;;;;;20910680;28;20405;-63
2021/08/30 18:34:55;;;;;;;5.15;4.20;;;;;;;;;;20911485;28;20052;-63
2021/08/30 18:44:59;;;;;;;7.43;4.07;;;;;;;;;;20909263;28;20481;-64
2021/08/30 18:55:01;;;;;;;9.70;4.10;;;;;;;;;;20909998;28;20073;-63
2021/08/30 19:05:04;;;;;;;5.53;3.60;;;;;;;;;;20908585;28;20057;-63
2021/08/30 19:15:07;;;;;;;10.50;4.72;;;;;;;;;;20908202;28;20457;-63
2021/08/30 19:25:09;;;;;;;10.80;6.10;;;;;;;;;;20907598;28;20135;-63
2021/08/30 19:35:12;;;;;;;6.65;3.97;;;;;;;;;;20906781;28;20052;-64
2021/08/30 19:45:15;;;;;;;10.70;7.80;;;;;;;;;;20887520;28;20059;-63
2021/08/30 19:55:18;;;;;;;10.55;6.60;;;;;;;;;;20904015;28;20041;-63
2021/08/30 20:05:20;;;;;;;7.80;5.43;;;;;;;;;;20904022;28;20141;-63
2021/08/30 20:15:22;;;;;;;6.28;5.68;;;;;;;;;;20903894;28;20053;-63
2021/08/30 20:25:26;;;;;;;10.27;7.95;;;;;;;;;;20903936;28;20075;-63
2021/08/30 20:35:29;;;;;;;6.53;5.00;;;;;;;;;;20903733;28;20454;-62
2021/08/30 20:45:31;;;;;;;5.00;4.25;;;;;;;;;;20902030;28;20056;-64
2021/08/30 20:55:34;;;;;;;6.30;4.95;;;;;;;;;;20901545;28;20070;-63
2021/08/30 21:05:36;;;;;;;7.10;4.90;;;;;;;;;;20900830;28;20457;-63
2021/08/30 21:15:38;;;;;;;13.63;9.32;;;;;;;;;;20900614;28;20082;-63
2021/08/30 21:25:41;;;;;;;5.72;4.65;;;;;;;;;;20900282;28;20053;-63
2021/08/30 21:35:43;;;;;;;9.00;5.90;;;;;;;;;;20900473;28;20049;-64
2021/08/30 21:45:47;;;;;;;7.03;4.95;;;;;;;;;;20899464;28;20142;-63
2021/08/30 21:55:53;;;;;;;7.97;5.70;;;;;;;;;;20898918;28;20051;-64
2021/08/30 22:05:55;;;;;;;8.27;5.45;;;;;;;;;;20898537;28;20057;-63
2021/08/30 22:15:58;;;;;;;7.57;5.18;;;;;;;;;;20905202;28;20136;-63
2021/08/30 22:26:01;;;;;;;8.15;5.90;;;;;;;;;;20911359;28;20048;-65
2021/08/30 22:36:03;;;;;;;7.82;5.43;;;;;;;;;;20910043;28;20053;-62
2021/08/30 22:46:05;;;;;;;11.55;7.43;;;;;;;;;;20910425;28;20056;-62
2021/08/30 22:56:07;;;;;;;13.65;9.80;;;;;;;;;;20909809;28;20045;-63
2021/08/30 23:06:10;;;;;;;11.70;6.85;;;;;;;;;;20909259;28;20078;-64
2021/08/30 23:16:11;;;;;;;11.25;7.13;;;;;;;;;;20891966;28;20083;-63
2021/08/30 23:26:13;;;;;;;8.00;5.43;;;;;;;;;;20908096;28;20045;-63
2021/08/30 23:36:15;;;;;;;6.38;5.28;;;;;;;;;;20907498;28;20049;-63
2021/08/30 23:46:19;;;;;;;9.02;5.57;;;;;;;;;;20907250;28;20057;-63
2021/08/30 23:56:20;;;;;;;8.27;4.63;;;;;;;;;;20906529;28;20077;-63
